Time;durP1;ratioP1;P1;durP2;ratioP2;P2;SDS_P1;SDS_P2;PMS_P1;PMS_P2;Temp;Humidity;BMP_temperature;BMP_pressure;BME280_temperature;BME280_humidity;BME280_pressure;Samples;Min_cycle;Max_cycle;Signal;HPM_P1;HPM_P2
2022/10/29 00:01:21;;;;;;;;;;;;;;;21.68;65.10;100026.44;7314701;19;129097;-34
2022/10/29 00:03:47;;;;;;;;;;;;;;;21.69;65.51;100020.28;7313130;19;129272;-35
2022/10/29 00:06:12;;;;;;;;;;;;;;;21.68;65.04;100031.69;7316344;19;129553;-34
2022/10/29 00:08:38;;;;;;;;;;;;;;;21.65;65.22;100026.72;7313651;19;129760;-33
2022/10/29 00:11:06;;;;;;;;;;;;;;;21.71;65.61;100033.22;7314972;19;129332;-34
2022/10/29 00:13:31;;;;;;;;;;;;;;;21.70;64.82;100032.41;7316263;19;129424;-35
2022/10/29 00:15:56;;;;;;;;;;;;;;;21.70;65.40;100035.00;7313594;19;129321;-34
2022/10/29 00:18:22;;;;;;;;;;;;;;;21.66;65.00;100035.41;7313803;19;129121;-35
2022/10/29 00:20:47;;;;;;;;;;;;;;;21.68;64.97;100029.06;7316158;19;129012;-34
2022/10/29 00:23:13;;;;;;;;;;;;;;;21.71;64.94;100035.84;7315322;19;129477;-36
2022/10/29 00:25:38;;;;;;;;;;;;;;;21.69;65.26;100029.91;7313475;19;129654;-35
2022/10/29 00:28:03;;;;;;;;;;;;;;;21.68;65.13;100033.50;7313461;19;130469;-34
2022/10/29 00:30:28;;;;;;;;;;;;;;;21.68;65.26;100034.31;7313249;19;131164;-34
2022/10/29 00:32:54;;;;;;;;;;;;;;;21.64;65.58;100032.91;7315618;19;129798;-34
2022/10/29 00:35:19;;;;;;;;;;;;;;;21.65;65.07;100031.94;7314614;19;129621;-35
2022/10/29 00:37:44;;;;;;;;;;;;;;;21.65;65.71;100029.34;7314144;19;128824;-35
2022/10/29 00:40:10;;;;;;;;;;;;;;;21.59;65.17;100011.53;7314279;19;130446;-34
2022/10/29 00:42:35;;;;;;;;;;;;;;;21.69;64.67;100035.97;7314947;19;129624;-35
2022/10/29 00:45:01;;;;;;;;;;;;;;;21.65;65.58;100031.16;7310635;19;131196;-33
2022/10/29 00:47:35;;;;;;;;;;;;;;;21.65;65.37;100034.56;7312186;19;128919;-34
2022/10/29 00:50:09;;;;;;;;;;;;;;;21.65;65.40;100028.53;7312256;19;129017;-35
2022/10/29 00:52:37;;;;;;;;;;;;;;;21.68;65.15;100029.06;7313858;19;129404;-35
2022/10/29 00:55:05;;;;;;;;;;;;;;;21.69;65.25;100025.50;7311609;19;129203;-35
2022/10/29 00:57:35;;;;;;;;;;;;;;;21.68;65.05;100031.69;7311230;19;129318;-36
2022/10/29 01:00:00;;;;;;;;;;;;;;;21.66;65.69;100023.16;7315020;19;130207;-33
2022/10/29 01:02:26;;;;;;;;;;;;;;;21.69;65.01;100033.38;7314515;19;129435;-34
2022/10/29 01:04:52;;;;;;;;;;;;;;;21.68;64.88;100021.22;7315151;19;129975;-36
2022/10/29 01:07:18;;;;;;;;;;;;;;;21.66;65.04;100015.31;7313776;19;130176;-33
2022/10/29 01:09:43;;;;;;;;;;;;;;;21.64;65.03;100019.84;7311630;19;130203;-33
2022/10/29 01:12:17;;;;;;;;;;;;;;;21.69;65.46;100020.28;7312470;19;130528;-34
2022/10/29 01:15:01;;;;;;;;;;;;;;;21.68;65.19;100025.66;7313797;19;130002;-34
2022/10/29 01:17:26;;;;;;;;;;;;;;;21.62;65.68;100013.91;7313557;19;129197;-33
2022/10/29 01:20:10;;;;;;;;;;;;;;;21.66;65.67;100015.31;7313259;19;128826;-35
2022/10/29 01:22:54;;;;;;;;;;;;;;;21.64;65.98;100005.91;7314122;19;129883;-35
2022/10/29 01:25:31;;;;;;;;;;;;;;;21.66;65.67;100009.25;7311979;19;130427;-35
2022/10/29 01:27:59;;;;;;;;;;;;;;;21.67;65.16;100019.56;7310549;19;129079;-34
2022/10/29 01:30:36;;;;;;;;;;;;;;;21.67;65.03;100031.81;7310104;19;129180;-33
2022/10/29 01:33:40;;;;;;;;;;;;;;;21.66;65.54;100024.94;7312891;19;129143;-36
2022/10/29 01:36:18;;;;;;;;;;;;;;;21.67;65.10;100016.13;7308400;19;131464;-33
2022/10/29 01:39:01;;;;;;;;;;;;;;;21.68;65.22;100023.84;7308469;19;131109;-32
2022/10/29 01:41:29;;;;;;;;;;;;;;;21.68;65.47;100018.59;7311639;19;129403;-33
2022/10/29 01:43:57;;;;;;;;;;;;;;;21.69;65.15;100022.06;7314234;19;129448;-35
2022/10/29 01:46:39;;;;;;;;;;;;;;;21.60;65.01;100005.34;7312895;19;129904;-35
2022/10/29 01:49:07;;;;;;;;;;;;;;;21.72;64.93;100032.25;7312410;19;130075;-34
2022/10/29 01:51:34;;;;;;;;;;;;;;;21.70;65.02;100032.41;7312680;19;131039;-33
2022/10/29 01:54:00;;;;;;;;;;;;;;;21.69;65.27;100030.75;7309716;19;129272;-35
2022/10/29 01:56:25;;;;;;;;;;;;;;;21.64;64.99;100035.53;7310791;19;130503;-35
2022/10/29 01:58:53;;;;;;;;;;;;;;;21.69;65.10;100027.28;7315394;19;129310;-34
2022/10/29 02:01:24;;;;;;;;;;;;;;;21.68;65.52;100025.66;7318835;19;130258;-33
2022/10/29 02:03:49;;;;;;;;;;;;;;;21.65;65.64;100028.53;7319712;19;130661;-36
2022/10/29 02:06:14;;;;;;;;;;;;;;;21.64;65.58;100027.69;7318970;19;130246;-32
2022/10/29 02:08:58;;;;;;;;;;;;;;;21.69;65.51;100033.38;7316126;19;129573;-34
2022/10/29 02:11:33;;;;;;;;;;;;;;;21.70;65.58;100028.97;7318006;19;129458;-35
2022/10/29 02:14:02;;;;;;;;;;;;;;;21.73;65.13;100021.66;7319926;19;129086;-36
2022/10/29 02:16:27;;;;;;;;;;;;;;;21.69;65.08;100028.13;7317686;19;129145;-35
2022/10/29 02:18:53;;;;;;;;;;;;;;;21.73;65.35;100020.84;7318704;19;130480;-36
2022/10/29 02:21:19;;;;;;;;;;;;;;;21.70;65.63;100021.91;7318220;19;129449;-35
2022/10/29 02:23:44;;;;;;;;;;;;;;;21.69;65.08;100015.03;7317780;19;129564;-35
2022/10/29 02:26:10;;;;;;;;;;;;;;;21.67;64.98;100010.88;7317579;19;129138;-35
2022/10/29 02:28:35;;;;;;;;;;;;;;;21.71;65.35;100015.75;7316462;19;129211;-35
2022/10/29 02:31:00;;;;;;;;;;;;;;;21.69;65.61;100015.03;7318467;19;129524;-33
2022/10/29 02:33:26;;;;;;;;;;;;;;;21.72;65.44;100017.41;7317017;19;129302;-35
2022/10/29 02:35:51;;;;;;;;;;;;;;;21.71;65.76;100017.53;7315289;19;129589;-35
2022/10/29 02:38:16;;;;;;;;;;;;;;;21.70;65.16;100008.84;7316264;19;128758;-33
2022/10/29 02:40:41;;;;;;;;;;;;;;;21.69;65.26;100008.97;7317001;19;129494;-35
2022/10/29 02:43:07;;;;;;;;;;;;;;;21.68;65.33;100002.91;7318321;19;129122;-35
2022/10/29 02:45:32;;;;;;;;;;;;;;;21.57;65.66;100000.38;7316082;19;131256;-33
2022/10/29 02:47:57;;;;;;;;;;;;;;;21.65;65.31;100011.03;7316726;19;130115;-29
2022/10/29 02:50:22;;;;;;;;;;;;;;;21.71;65.27;100028.00;7314462;19;128772;-35
2022/10/29 02:52:48;;;;;;;;;;;;;;;21.69;65.04;100030.75;7317997;19;129075;-35
2022/10/29 02:55:13;;;;;;;;;;;;;;;21.71;64.93;100028.84;7314910;19;130067;-35
2022/10/29 02:57:38;;;;;;;;;;;;;;;21.70;65.37;100027.16;7316560;19;130146;-36
2022/10/29 03:00:04;;;;;;;;;;;;;;;21.72;64.80;100034.88;7317423;19;128977;-34
2022/10/29 03:02:29;;;;;;;;;;;;;;;21.69;65.53;100028.13;7317230;19;129860;-35
2022/10/29 03:04:54;;;;;;;;;;;;;;;21.68;65.82;100034.31;7316526;19;130086;-35
2022/10/29 03:07:19;;;;;;;;;;;;;;;21.69;65.22;100033.38;7315692;19;128915;-35
2022/10/29 03:09:45;;;;;;;;;;;;;;;21.70;65.38;100029.78;7314531;19;129592;-33
2022/10/29 03:12:10;;;;;;;;;;;;;;;21.69;64.98;100035.97;7316169;19;129395;-33
2022/10/29 03:14:35;;;;;;;;;;;;;;;21.68;64.96;100042.16;7316541;19;129834;-36
2022/10/29 03:17:00;;;;;;;;;;;;;;;21.67;65.71;100048.34;7315898;19;129398;-34
2022/10/29 03:19:26;;;;;;;;;;;;;;;21.68;65.31;100051.81;7315061;19;129405;-35
2022/10/29 03:21:51;;;;;;;;;;;;;;;21.68;65.43;100042.16;7315922;19;129641;-37
2022/10/29 03:24:16;;;;;;;;;;;;;;;21.71;64.88;100049.78;7317468;19;129663;-34
2022/10/29 03:26:41;;;;;;;;;;;;;;;21.66;65.62;100051.94;7315258;19;130696;-35
2022/10/29 03:29:06;;;;;;;;;;;;;;;21.61;65.12;100033.19;7314648;19;130107;-34
2022/10/29 03:31:32;;;;;;;;;;;;;;;21.71;65.07;100048.94;7317182;19;129495;-35
2022/10/29 03:33:57;;;;;;;;;;;;;;;21.71;65.13;100049.78;7316913;19;129315;-35
2022/10/29 03:36:22;;;;;;;;;;;;;;;21.71;65.40;100054.16;7314839;19;129955;-36
2022/10/29 03:38:47;;;;;;;;;;;;;;;21.73;65.33;100057.50;7316246;19;129334;-34
2022/10/29 03:41:13;;;;;;;;;;;;;;;21.70;65.05;100058.56;7316427;19;130050;-36
2022/10/29 03:43:38;;;;;;;;;;;;;;;21.70;65.71;100055.94;7316520;19;129674;-35
2022/10/29 03:46:04;;;;;;;;;;;;;;;21.60;65.69;100047.19;7315630;19;128984;-34
2022/10/29 03:48:30;;;;;;;;;;;;;;;21.70;65.94;100063.00;7314736;19;129465;-36
2022/10/29 03:50:56;;;;;;;;;;;;;;;21.69;64.97;100064.75;7316705;19;129143;-34
2022/10/29 03:53:21;;;;;;;;;;;;;;;21.62;65.21;100055.75;7316667;19;130126;-32
2022/10/29 03:55:46;;;;;;;;;;;;;;;21.72;65.36;100066.28;7315675;19;128837;-32
2022/10/29 03:58:12;;;;;;;;;;;;;;;21.69;65.44;100062.16;7313913;19;129154;-33
2022/10/29 04:00:37;;;;;;;;;;;;;;;21.70;65.34;100070.84;7314119;19;129446;-33
2022/10/29 04:03:02;;;;;;;;;;;;;;;21.70;65.53;100068.22;7315005;19;129322;-36
2022/10/29 04:05:27;;;;;;;;;;;;;;;21.68;65.18;100054.44;7315157;19;129642;-33
2022/10/29 04:07:52;;;;;;;;;;;;;;;21.69;65.31;100059.53;7310832;19;130525;-32
2022/10/29 04:10:18;;;;;;;;;;;;;;;21.66;65.62;100059.78;7311245;19;129748;-33
2022/10/29 04:12:46;;;;;;;;;;;;;;;21.70;64.81;100069.03;7315154;19;129704;-35
2022/10/29 04:15:11;;;;;;;;;;;;;;;21.63;65.65;100052.22;7313529;19;129212;-36
2022/10/29 04:17:36;;;;;;;;;;;;;;;21.68;65.65;100065.72;7311892;19;129642;-35
2022/10/29 04:20:02;;;;;;;;;;;;;;;21.74;64.86;100074.84;7311246;19;131256;-34
2022/10/29 04:22:27;;;;;;;;;;;;;;;21.69;65.42;100083.09;7310556;19;129813;-35
2022/10/29 04:24:52;;;;;;;;;;;;;;;21.70;65.40;100092.59;7315253;19;129177;-33
2022/10/29 04:27:18;;;;;;;;;;;;;;;21.71;65.31;100086.41;7315501;19;129049;-34
2022/10/29 04:29:43;;;;;;;;;;;;;;;21.68;65.58;100086.63;7311599;19;130131;-32
2022/10/29 04:32:08;;;;;;;;;;;;;;;21.70;64.98;100097.81;7313080;19;129148;-33
2022/10/29 04:34:33;;;;;;;;;;;;;;;21.70;65.59;100089.97;7312540;19;129387;-35
2022/10/29 04:36:59;;;;;;;;;;;;;;;21.72;65.35;100088.06;7312733;19;131430;-36
2022/10/29 04:39:24;;;;;;;;;;;;;;;21.73;65.44;100087.09;7314162;19;129624;-34
2022/10/29 04:41:49;;;;;;;;;;;;;;;21.73;65.37;100083.66;7312624;19;129885;-34
2022/10/29 04:44:14;;;;;;;;;;;;;;;21.68;65.38;100084.03;7312647;19;128921;-35
2022/10/29 04:46:40;;;;;;;;;;;;;;;21.71;65.49;100086.41;7311415;19;129511;-36
2022/10/29 04:49:05;;;;;;;;;;;;;;;21.70;65.51;100089.16;7311085;19;129150;-34
2022/10/29 04:51:30;;;;;;;;;;;;;;;21.71;64.92;100086.41;7311392;19;129492;-32
2022/10/29 04:53:55;;;;;;;;;;;;;;;21.69;65.51;100083.09;7314520;19;128796;-36
2022/10/29 04:56:20;;;;;;;;;;;;;;;21.73;65.36;100083.66;7314033;19;129597;-35
2022/10/29 04:58:48;;;;;;;;;;;;;;;21.73;65.46;100079.22;7314714;19;130250;-34
2022/10/29 05:01:14;;;;;;;;;;;;;;;21.59;65.40;100060.41;7310965;19;130248;-34
2022/10/29 05:03:39;;;;;;;;;;;;;;;21.71;65.71;100069.88;7308902;19;129938;-34
2022/10/29 05:06:04;;;;;;;;;;;;;;;21.73;65.26;100079.22;7309866;19;129613;-36
2022/10/29 05:08:30;;;;;;;;;;;;;;;21.73;65.19;100083.66;7308776;19;130186;-34
2022/10/29 05:10:55;;;;;;;;;;;;;;;21.72;65.12;100088.06;7308803;19;129255;-35
2022/10/29 05:13:20;;;;;;;;;;;;;;;21.71;65.20;100085.56;7309564;19;130091;-36
2022/10/29 05:15:51;;;;;;;;;;;;;;;21.74;65.41;100086.16;7310391;19;129325;-36
2022/10/29 05:18:17;;;;;;;;;;;;;;;21.68;65.19;100089.25;7309909;19;129478;-35
2022/10/29 05:20:42;;;;;;;;;;;;;;;21.70;65.81;100089.16;7310542;19;130379;-32
2022/10/29 05:23:09;;;;;;;;;;;;;;;21.71;65.81;100086.41;7309826;19;129544;-36
2022/10/29 05:25:35;;;;;;;;;;;;;;;21.72;65.71;100082.81;7311869;19;129500;-36
2022/10/29 05:28:00;;;;;;;;;;;;;;;21.71;65.33;100091.66;7310771;19;130906;-34
2022/10/29 05:30:25;;;;;;;;;;;;;;;21.69;64.92;100095.31;7310243;19;130264;-34
2022/10/29 05:32:50;;;;;;;;;;;;;;;21.61;65.63;100088.13;7307587;19;130866;-34
2022/10/29 05:35:16;;;;;;;;;;;;;;;21.69;65.68;100111.88;7312322;19;130532;-33
2022/10/29 05:37:41;;;;;;;;;;;;;;;21.72;65.66;100110.78;7310255;19;129806;-35
2022/10/29 05:40:07;;;;;;;;;;;;;;;21.72;65.66;100103.75;7310854;19;130083;-34
2022/10/29 05:42:36;;;;;;;;;;;;;;;21.71;65.71;100096.88;7313257;19;129657;-32
2022/10/29 05:45:01;;;;;;;;;;;;;;;21.71;65.29;100096.88;7309336;19;131898;-34
2022/10/29 05:47:26;;;;;;;;;;;;;;;21.74;65.59;100107.09;7309587;19;129670;-37
2022/10/29 05:49:52;;;;;;;;;;;;;;;21.72;64.92;100103.75;7308773;19;130449;-35
2022/10/29 05:52:17;;;;;;;;;;;;;;;21.73;65.65;100108.03;7307382;19;130346;-33
2022/10/29 05:54:42;;;;;;;;;;;;;;;21.73;65.25;100115.88;7306189;19;129905;-31
2022/10/29 05:57:07;;;;;;;;;;;;;;;21.75;65.15;100124.44;7309015;19;130147;-35
2022/10/29 05:59:32;;;;;;;;;;;;;;;21.71;65.56;100115.19;7309238;19;129596;-36
2022/10/29 06:01:58;;;;;;;;;;;;;;;21.70;65.51;100105.66;7310139;19;129656;-33
2022/10/29 06:04:23;;;;;;;;;;;;;;;21.75;65.13;100111.34;7309471;19;129173;-31
2022/10/29 06:06:48;;;;;;;;;;;;;;;21.71;65.05;100112.59;7308300;19;130149;-34
2022/10/29 06:09:13;;;;;;;;;;;;;;;21.70;65.51;100108.28;7308099;19;129358;-34
2022/10/29 06:11:39;;;;;;;;;;;;;;;21.70;65.41;100104.84;7309331;19;128752;-35
2022/10/29 06:14:04;;;;;;;;;;;;;;;21.72;64.97;100102.91;7309118;19;129318;-34
2022/10/29 06:16:29;;;;;;;;;;;;;;;21.71;65.38;100107.34;7309575;19;129101;-33
2022/10/29 06:18:55;;;;;;;;;;;;;;;21.74;65.45;100109.69;7309864;19;130553;-35
2022/10/29 06:21:20;;;;;;;;;;;;;;;21.73;65.05;100115.06;7306933;19;129168;-34
2022/10/29 06:23:45;;;;;;;;;;;;;;;21.74;65.41;100117.56;7310825;19;130216;-35
2022/10/29 06:26:10;;;;;;;;;;;;;;;21.69;65.37;100104.03;7308011;19;130454;-36
2022/10/29 06:28:36;;;;;;;;;;;;;;;21.75;65.34;100119.19;7306651;19;129743;-33
2022/10/29 06:31:01;;;;;;;;;;;;;;;21.74;65.19;100111.47;7303556;19;131229;-32
2022/10/29 06:33:27;;;;;;;;;;;;;;;21.70;65.26;100121.38;7307116;19;130179;-35
2022/10/29 06:35:56;;;;;;;;;;;;;;;21.71;65.20;100117.81;7307590;19;130063;-32
2022/10/29 06:38:21;;;;;;;;;;;;;;;21.69;65.69;100137.19;7306150;19;129552;-35
2022/10/29 06:40:51;;;;;;;;;;;;;;;21.60;65.65;100125.69;7310153;19;129113;-34
2022/10/29 06:43:16;;;;;;;;;;;;;;;21.63;65.33;100120.25;7310265;19;129195;-35
2022/10/29 06:45:41;;;;;;;;;;;;;;;21.72;65.76;100136.94;7313157;19;129575;-36
2022/10/29 06:48:07;;;;;;;;;;;;;;;21.71;65.15;100140.53;7315654;19;130207;-35
2022/10/29 06:50:33;;;;;;;;;;;;;;;21.72;65.65;100135.16;7315504;19;129361;-34
2022/10/29 06:52:59;;;;;;;;;;;;;;;21.75;65.25;100134.91;7316129;19;129406;-35
2022/10/29 06:55:25;;;;;;;;;;;;;;;21.75;65.29;100134.09;7314026;19;129564;-35
2022/10/29 06:57:57;;;;;;;;;;;;;;;21.72;65.57;100129.94;7312167;19;129731;-36
2022/10/29 07:00:23;;;;;;;;;;;;;;;21.70;65.40;100134.44;7314123;19;129062;-34
2022/10/29 07:02:49;;;;;;;;;;;;;;;21.66;65.12;100130.44;7315539;19;130478;-33
2022/10/29 07:05:14;;;;;;;;;;;;;;;21.68;65.28;100122.47;7309362;19;129959;-34
2022/10/29 07:07:39;;;;;;;;;;;;;;;21.71;65.74;100127.44;7310420;19;129721;-34
2022/10/29 07:10:04;;;;;;;;;;;;;;;21.73;65.42;100126.34;7313641;19;129378;-34
2022/10/29 07:12:30;;;;;;;;;;;;;;;21.72;65.37;100129.94;7310471;19;130661;-34
2022/10/29 07:14:55;;;;;;;;;;;;;;;21.74;65.40;100125.41;7314845;19;129820;-35
2022/10/29 07:17:20;;;;;;;;;;;;;;;21.73;64.92;100128.97;7314028;19;129091;-34
2022/10/29 07:19:45;;;;;;;;;;;;;;;21.73;65.09;100131.56;7314735;19;130131;-34
2022/10/29 07:22:10;;;;;;;;;;;;;;;21.76;65.54;100136.63;7313423;19;130158;-32
2022/10/29 07:24:36;;;;;;;;;;;;;;;21.64;65.64;100121.03;7316410;19;129331;-35
2022/10/29 07:27:01;;;;;;;;;;;;;;;21.72;65.86;100129.94;7315465;19;129171;-32
2022/10/29 07:29:26;;;;;;;;;;;;;;;21.64;65.82;100126.28;7312779;19;130700;-35
2022/10/29 07:31:51;;;;;;;;;;;;;;;21.71;65.74;100133.50;7316216;19;129911;-34
2022/10/29 07:34:17;;;;;;;;;;;;;;;21.70;65.75;100131.84;7312680;19;129783;-34
2022/10/29 07:36:42;;;;;;;;;;;;;;;21.69;65.93;100135.41;7315048;19;131006;-35
2022/10/29 07:39:07;;;;;;;;;;;;;;;21.73;65.29;100141.25;7314742;19;130049;-35
2022/10/29 07:41:32;;;;;;;;;;;;;;;21.71;65.23;100135.28;7313366;19;129241;-36
2022/10/29 07:43:58;;;;;;;;;;;;;;;21.70;65.54;100131.84;7314888;19;129250;-34
2022/10/29 07:46:23;;;;;;;;;;;;;;;21.67;65.54;100133.88;7313154;19;129797;-34
2022/10/29 07:48:48;;;;;;;;;;;;;;;21.69;65.99;100138.03;7315143;19;129337;-35
2022/10/29 07:51:13;;;;;;;;;;;;;;;21.73;65.11;100151.69;7312420;19;129337;-35
2022/10/29 07:53:39;;;;;;;;;;;;;;;21.72;65.19;100145.63;7312646;19;130944;-35
2022/10/29 07:56:04;;;;;;;;;;;;;;;21.69;65.83;100135.41;7311476;19;129700;-34
2022/10/29 07:58:29;;;;;;;;;;;;;;;21.70;65.90;100137.06;7309639;19;130348;-36
2022/10/29 08:00:57;;;;;;;;;;;;;;;21.73;65.83;100131.56;7316438;19;129480;-34
2022/10/29 08:03:23;;;;;;;;;;;;;;;21.71;65.81;100138.75;7315571;19;129323;-35
2022/10/29 08:05:48;;;;;;;;;;;;;;;21.71;65.91;100149.22;7312762;19;129798;-33
2022/10/29 08:08:14;;;;;;;;;;;;;;;21.70;65.23;100142.31;7312096;19;129616;-32
2022/10/29 08:10:39;;;;;;;;;;;;;;;21.72;65.15;100145.63;7314975;19;129544;-35
2022/10/29 08:13:05;;;;;;;;;;;;;;;21.71;65.91;100143.16;7313834;19;129797;-35
2022/10/29 08:15:31;;;;;;;;;;;;;;;21.71;65.78;100143.97;7310745;19;130065;-32
2022/10/29 08:17:56;;;;;;;;;;;;;;;21.72;65.31;100150.03;7311993;19;129846;-36
2022/10/29 08:20:23;;;;;;;;;;;;;;;21.70;66.07;100142.31;7314380;19;129147;-35
2022/10/29 08:22:48;;;;;;;;;;;;;;;21.76;64.97;100135.75;7312422;19;129505;-33
2022/10/29 08:25:14;;;;;;;;;;;;;;;21.72;65.41;100135.16;7313040;19;130099;-34
2022/10/29 08:27:39;;;;;;;;;;;;;;;21.70;65.40;100121.38;7312807;19;129043;-33
2022/10/29 08:30:05;;;;;;;;;;;;;;;21.71;65.31;100117.81;7312633;19;130439;-33
2022/10/29 08:32:30;;;;;;;;;;;;;;;21.67;65.89;100119.00;7314816;19;129624;-33
2022/10/29 08:34:55;;;;;;;;;;;;;;;21.72;65.93;100119.47;7313922;19;130082;-35
2022/10/29 08:37:21;;;;;;;;;;;;;;;21.72;65.93;100105.53;7312940;19;129000;-35
2022/10/29 08:39:46;;;;;;;;;;;;;;;21.71;65.57;100115.19;7310741;19;130147;-34
2022/10/29 08:42:27;;;;;;;;;;;;;;;21.71;65.45;100096.88;7305880;19;129983;-36
2022/10/29 08:44:52;;;;;;;;;;;;;;;21.70;65.29;100097.81;7312980;19;129634;-33
2022/10/29 08:47:19;;;;;;;;;;;;;;;21.71;65.54;100096.88;7313069;19;129241;-36
2022/10/29 08:49:44;;;;;;;;;;;;;;;21.64;65.64;100082.63;7313682;19;129092;-34
2022/10/29 08:52:23;;;;;;;;;;;;;;;21.68;65.42;100102.34;7314653;19;129252;-34
2022/10/29 08:54:53;;;;;;;;;;;;;;;21.56;65.74;100079.84;7309629;19;129322;-36
2022/10/29 08:57:21;;;;;;;;;;;;;;;21.71;65.47;100091.66;7310598;19;129433;-33
2022/10/29 08:59:58;;;;;;;;;;;;;;;21.72;65.50;100089.84;7310919;19;129254;-36
2022/10/29 09:02:24;;;;;;;;;;;;;;;21.75;65.43;100094.84;7307034;19;131468;-35
2022/10/29 09:04:49;;;;;;;;;;;;;;;21.74;65.09;100093.16;7310921;19;131676;-35
2022/10/29 09:07:27;;;;;;;;;;;;;;;21.74;65.18;100088.75;7300072;19;130194;-36
2022/10/29 09:09:56;;;;;;;;;;;;;;;21.73;65.68;100100.16;7280897;19;130786;-36
2022/10/29 09:12:22;;;;;;;;;;;;;;;21.76;65.40;100094.75;7289276;19;132407;-31
2022/10/29 09:14:57;;;;;;;;;;;;;;;21.72;65.55;100101.13;7307168;19;129503;-33
2022/10/29 09:17:46;;;;;;;;;;;;;;;21.74;65.43;100101.00;7311131;19;129734;-35
2022/10/29 09:20:14;;;;;;;;;;;;;;;21.78;65.03;100097.22;7313268;19;129751;-34
2022/10/29 09:22:44;;;;;;;;;;;;;;;21.58;65.65;100083.16;7307221;19;131572;-33
2022/10/29 09:25:39;;;;;;;;;;;;;;;21.66;65.43;100099.03;7308140;19;130273;-33
2022/10/29 09:28:39;;;;;;;;;;;;;;;21.73;65.17;100094.94;7307397;19;130013;-34
2022/10/29 09:31:08;;;;;;;;;;;;;;;21.72;65.05;100097.69;7302412;19;129355;-33
2022/10/29 09:33:33;;;;;;;;;;;;;;;21.73;65.25;100089.69;7308022;19;130322;-33
2022/10/29 09:35:59;;;;;;;;;;;;;;;21.60;65.53;100065.53;7306002;19;129565;-33
2022/10/29 09:38:25;;;;;;;;;;;;;;;21.66;65.37;100079.88;7304028;19;131069;-35
2022/10/29 09:40:51;;;;;;;;;;;;;;;21.72;65.69;100080.19;7309123;19;130480;-35
2022/10/29 09:43:16;;;;;;;;;;;;;;;21.72;65.08;100088.06;7310032;19;129814;-36
2022/10/29 09:46:07;;;;;;;;;;;;;;;21.70;65.80;100084.72;7304416;19;131042;-34
2022/10/29 09:48:35;;;;;;;;;;;;;;;21.71;65.34;100088.19;7306171;19;129226;-33
2022/10/29 09:51:07;;;;;;;;;;;;;;;21.72;65.22;100095.91;7309749;19;130467;-34
2022/10/29 09:53:32;;;;;;;;;;;;;;;21.73;65.67;100097.56;7310106;19;130153;-34
2022/10/29 09:55:57;;;;;;;;;;;;;;;21.69;65.52;100092.72;7312094;19;129622;-34
2022/10/29 09:58:24;;;;;;;;;;;;;;;21.74;65.17;100091.38;7305319;19;130760;-35
2022/10/29 10:00:50;;;;;;;;;;;;;;;21.72;65.58;100095.91;7309219;19;129868;-34
2022/10/29 10:03:34;;;;;;;;;;;;;;;21.69;65.24;100096.16;7307498;19;130802;-33
2022/10/29 10:06:07;;;;;;;;;;;;;;;21.71;65.46;100091.66;7310210;19;129669;-35
2022/10/29 10:08:33;;;;;;;;;;;;;;;21.71;65.18;100102.09;7302146;19;129298;-33
2022/10/29 10:11:00;;;;;;;;;;;;;;;21.70;65.23;100099.63;7309619;19;128881;-35
2022/10/29 10:13:26;;;;;;;;;;;;;;;21.71;65.62;100096.03;7307129;19;131623;-36
2022/10/29 10:15:53;;;;;;;;;;;;;;;21.63;65.39;100078.38;7310079;19;129399;-33
2022/10/29 10:18:20;;;;;;;;;;;;;;;21.71;64.93;100096.88;7301257;19;129216;-32
2022/10/29 10:20:48;;;;;;;;;;;;;;;21.70;65.31;100084.72;7316196;19;129220;-34
2022/10/29 10:23:19;;;;;;;;;;;;;;;21.72;64.97;100082.81;7312412;19;129102;-35
2022/10/29 10:25:45;;;;;;;;;;;;;;;21.71;65.64;100086.41;7316669;19;129585;-34
2022/10/29 10:28:16;;;;;;;;;;;;;;;21.71;65.14;100081.19;7313671;19;130201;-35
2022/10/29 10:30:42;;;;;;;;;;;;;;;21.61;65.47;100054.13;7312849;19;130016;-35
2022/10/29 10:33:20;;;;;;;;;;;;;;;21.70;65.00;100063.78;7318546;19;129541;-36
2022/10/29 10:35:46;;;;;;;;;;;;;;;21.70;65.12;100057.75;7313561;19;130231;-34
2022/10/29 10:38:12;;;;;;;;;;;;;;;21.69;65.22;100062.16;7316690;19;129221;-30
2022/10/29 10:40:37;;;;;;;;;;;;;;;21.72;65.30;100058.44;7314469;19;131661;-33
2022/10/29 10:43:03;;;;;;;;;;;;;;;21.70;65.83;100063.78;7317942;19;129388;-33
2022/10/29 10:45:33;;;;;;;;;;;;;;;21.73;65.05;100062.72;7315906;19;131424;-31
2022/10/29 10:47:59;;;;;;;;;;;;;;;21.70;65.12;100061.19;7312488;19;129968;-32
2022/10/29 10:50:29;;;;;;;;;;;;;;;21.70;65.16;100055.94;7312569;19;128952;-32
2022/10/29 10:52:58;;;;;;;;;;;;;;;21.70;65.29;100053.31;7312694;19;129679;-35
2022/10/29 10:55:29;;;;;;;;;;;;;;;21.69;65.85;100051.69;7305895;19;130929;-36
2022/10/29 10:58:03;;;;;;;;;;;;;;;21.70;65.11;100055.94;7315594;19;130665;-32
2022/10/29 11:00:33;;;;;;;;;;;;;;;21.60;65.52;100036.75;7313555;19;129212;-34
2022/10/29 11:03:07;;;;;;;;;;;;;;;21.66;65.84;100051.94;7313084;19;130935;-36
2022/10/29 11:05:35;;;;;;;;;;;;;;;21.64;65.28;100037.31;7315881;19;129741;-33
2022/10/29 11:08:03;;;;;;;;;;;;;;;21.71;65.61;100059.41;7315431;19;129760;-35
2022/10/29 11:10:33;;;;;;;;;;;;;;;21.70;65.19;100055.94;7314788;19;129114;-33
2022/10/29 11:13:01;;;;;;;;;;;;;;;21.68;65.56;100055.22;7314801;19;130185;-34
2022/10/29 11:15:26;;;;;;;;;;;;;;;21.59;65.21;100040.31;7310688;19;129125;-35
2022/10/29 11:17:58;;;;;;;;;;;;;;;21.70;65.10;100055.13;7314212;19;128817;-33
2022/10/29 11:20:30;;;;;;;;;;;;;;;21.72;65.70;100043.56;7304744;19;129196;-33
2022/10/29 11:23:14;;;;;;;;;;;;;;;21.72;65.41;100037.50;7311662;19;129868;-34
2022/10/29 11:25:43;;;;;;;;;;;;;;;21.61;65.61;100021.88;7310468;19;129652;-36
2022/10/29 11:28:22;;;;;;;;;;;;;;;21.67;65.10;100040.50;7307763;19;130381;-33
2022/10/29 11:30:50;;;;;;;;;;;;;;;21.62;65.78;100024.38;7308797;19;129409;-36
2022/10/29 11:33:15;;;;;;;;;;;;;;;21.82;64.77;100025.31;7312615;19;129435;-34
2022/10/29 11:36:00;;;;;;;;;;;;;;;21.76;64.53;100021.47;7311967;19;130472;-36
2022/10/29 11:38:30;;;;;;;;;;;;;;;21.76;64.53;100010.13;7311300;19;129911;-33
2022/10/29 11:41:05;;;;;;;;;;;;;;;21.89;63.82;100008.97;7311613;19;129740;-35
2022/10/29 11:43:31;;;;;;;;;;;;;;;21.77;64.27;100006.56;7311436;19;129417;-35
2022/10/29 11:46:09;;;;;;;;;;;;;;;21.73;65.03;100005.16;7313576;19;129157;-34
2022/10/29 11:48:41;;;;;;;;;;;;;;;21.76;64.11;99995.28;7304559;19;129644;-34
2022/10/29 11:51:21;;;;;;;;;;;;;;;21.80;64.27;99999.28;7309727;19;129208;-35
2022/10/29 11:54:01;;;;;;;;;;;;;;;21.81;64.11;99987.88;7314415;19;130129;-35
2022/10/29 11:56:32;;;;;;;;;;;;;;;21.80;63.77;99991.44;7310695;19;129510;-35
2022/10/29 11:59:10;;;;;;;;;;;;;;;21.84;64.35;99990.22;7306232;19;129241;-34
2022/10/29 12:02:00;;;;;;;;;;;;;;;21.83;63.96;99980.69;7315402;19;129438;-35
2022/10/29 12:04:39;;;;;;;;;;;;;;;21.84;63.51;99982.38;7309871;19;129961;-33
2022/10/29 12:07:33;;;;;;;;;;;;;;;21.86;63.91;99975.22;7312943;19;129495;-34
2022/10/29 12:10:04;;;;;;;;;;;;;;;21.86;64.24;99967.38;7313588;19;129037;-36
2022/10/29 12:12:45;;;;;;;;;;;;;;;21.88;64.19;99964.63;7312815;19;129105;-36
2022/10/29 12:15:13;;;;;;;;;;;;;;;21.93;63.91;99960.63;7311390;19;129060;-33
2022/10/29 12:17:44;;;;;;;;;;;;;;;21.92;63.70;99963.38;7312248;19;129775;-35
2022/10/29 12:20:32;;;;;;;;;;;;;;;21.91;64.10;99962.53;7313970;19;129089;-36
2022/10/29 12:23:02;;;;;;;;;;;;;;;21.94;63.59;99962.28;7315876;19;129143;-34
2022/10/29 12:25:46;;;;;;;;;;;;;;;21.86;64.30;99951.66;7299951;19;131094;-35
2022/10/29 12:28:20;;;;;;;;;;;;;;;21.91;63.94;99957.28;7296870;19;130428;-36
2022/10/29 12:30:59;;;;;;;;;;;;;;;21.83;64.56;99957.13;7299371;19;129272;-34
2022/10/29 12:33:35;;;;;;;;;;;;;;;21.81;64.42;99961.69;7302899;19;130296;-38